createdAt,value
2018-06-08T00:00:11.232Z,20.26
2018-06-08T00:02:39.372Z,20.24
2018-06-08T00:05:07.670Z,20.19
2018-06-08T00:07:35.815Z,20.31
2018-06-08T00:10:03.976Z,20.26
2018-06-08T00:12:32.135Z,20.16
2018-06-08T00:15:00.324Z,20.13
2018-06-08T00:17:28.481Z,20.15
2018-06-08T00:19:56.635Z,20.27
2018-06-08T00:22:24.847Z,20.27
2018-06-08T00:24:53.025Z,20.18
2018-06-08T00:27:21.220Z,20.23
2018-06-08T00:29:49.419Z,20.19
2018-06-08T00:32:17.568Z,20.23
2018-06-08T00:34:45.731Z,20.56
2018-06-08T00:37:13.884Z,20.70
2018-06-08T00:39:42.039Z,20.89
2018-06-08T00:42:10.228Z,21.00
2018-06-08T00:44:38.391Z,20.98
2018-06-08T00:47:06.615Z,21.13
2018-06-08T00:49:34.778Z,21.07
2018-06-08T00:52:02.907Z,21.06
2018-06-08T00:54:31.065Z,21.16
2018-06-08T00:57:08.566Z,21.05
2018-06-08T00:59:43.019Z,21.02
2018-06-08T01:02:11.176Z,20.90
2018-06-08T01:04:39.338Z,20.98
2018-06-08T01:07:07.623Z,20.96
2018-06-08T01:09:35.812Z,20.98
2018-06-08T01:12:03.963Z,21.08
2018-06-08T01:14:33.313Z,20.98
2018-06-08T01:17:01.699Z,21.13
2018-06-08T01:19:33.269Z,21.16
2018-06-08T01:22:01.801Z,21.04
2018-06-08T01:24:29.984Z,21.02
2018-06-08T01:26:58.339Z,21.20
2018-06-08T01:29:26.495Z,21.02
2018-06-08T01:31:54.651Z,21.15
2018-06-08T01:34:22.827Z,21.14
2018-06-08T01:36:50.982Z,21.07
2018-06-08T01:39:19.135Z,21.10
2018-06-08T01:41:47.304Z,21.11
2018-06-08T01:44:15.605Z,21.05
2018-06-08T01:46:43.874Z,21.10
2018-06-08T01:49:12.067Z,20.98
2018-06-08T01:51:40.260Z,20.98
2018-06-08T01:54:08.459Z,20.97
2018-06-08T01:56:36.596Z,20.99
2018-06-08T01:59:04.753Z,21.00
2018-06-08T02:01:32.917Z,21.05
2018-06-08T02:04:01.088Z,21.10
2018-06-08T02:06:29.267Z,21.09
2018-06-08T02:08:57.399Z,21.10
2018-06-08T02:11:25.548Z,21.17
2018-06-08T02:13:53.703Z,20.94
2018-06-08T02:16:21.885Z,20.95
2018-06-08T02:18:50.045Z,20.98
2018-06-08T02:21:18.200Z,20.85
2018-06-08T02:23:46.377Z,20.81
2018-06-08T02:26:14.547Z,20.88
2018-06-08T02:28:42.716Z,20.45
2018-06-08T02:31:10.929Z,20.50
2018-06-08T02:33:39.099Z,20.66
2018-06-08T02:36:07.259Z,20.79
2018-06-08T02:38:35.408Z,20.84
2018-06-08T02:41:03.574Z,20.72
2018-06-08T02:43:31.730Z,20.62
2018-06-08T02:45:59.881Z,20.67
2018-06-08T02:48:28.023Z,20.67
2018-06-08T02:50:56.191Z,20.66
2018-06-08T02:53:24.342Z,20.64
2018-06-08T02:55:52.522Z,20.65
2018-06-08T02:58:20.691Z,20.62
2018-06-08T03:00:49.094Z,20.53
2018-06-08T03:03:17.224Z,20.58
2018-06-08T03:05:45.459Z,20.34
2018-06-08T03:08:13.622Z,20.32
2018-06-08T03:10:41.825Z,20.37
2018-06-08T03:13:09.975Z,20.43
2018-06-08T03:15:38.125Z,20.53
2018-06-08T03:18:06.294Z,20.69
2018-06-08T03:20:34.447Z,20.57
2018-06-08T03:23:02.596Z,20.74
2018-06-08T03:25:30.746Z,20.76
2018-06-08T03:27:58.878Z,20.76
2018-06-08T03:30:27.045Z,20.78
2018-06-08T03:32:55.202Z,20.67
2018-06-08T03:35:23.379Z,20.65
2018-06-08T03:37:51.531Z,20.63
2018-06-08T03:40:19.692Z,20.59
2018-06-08T03:42:47.834Z,20.63
2018-06-08T03:45:16.031Z,20.63
2018-06-08T03:47:44.188Z,20.74
2018-06-08T03:50:12.344Z,20.75
2018-06-08T03:52:40.512Z,20.60
2018-06-08T03:55:08.704Z,20.60
2018-06-08T03:57:36.859Z,20.58
2018-06-08T04:00:05.209Z,20.53
2018-06-08T04:02:33.353Z,20.56
2018-06-08T04:05:01.632Z,20.63
2018-06-08T04:07:29.779Z,20.47
2018-06-08T04:09:57.943Z,20.36
2018-06-08T04:12:26.160Z,20.33
2018-06-08T04:14:54.316Z,20.06
2018-06-08T04:17:22.624Z,20.04
2018-06-08T04:19:50.799Z,20.08
2018-06-08T04:22:19.056Z,20.10
2018-06-08T04:24:47.196Z,20.15
2018-06-08T04:27:15.352Z,20.14
2018-06-08T04:29:43.500Z,20.08
2018-06-08T04:32:11.670Z,20.13
2018-06-08T04:34:39.795Z,20.04
2018-06-08T04:37:07.981Z,20.00
2018-06-08T04:39:36.141Z,20.00
2018-06-08T04:42:04.332Z,20.00
2018-06-08T04:44:32.548Z,20.04
2018-06-08T04:47:00.696Z,19.98
2018-06-08T04:49:28.863Z,20.09
2018-06-08T04:51:57.026Z,20.05
2018-06-08T04:54:25.170Z,19.98
2018-06-08T04:56:53.366Z,20.07
2018-06-08T04:59:21.709Z,20.22
2018-06-08T05:01:49.990Z,20.05
2018-06-08T05:04:18.134Z,20.08
2018-06-08T05:06:46.303Z,20.05
2018-06-08T05:09:14.451Z,19.98
2018-06-08T05:11:42.603Z,19.90
2018-06-08T05:14:11.155Z,19.92
2018-06-08T05:16:39.334Z,19.96
2018-06-08T05:19:07.483Z,19.89
2018-06-08T05:21:35.645Z,19.87
2018-06-08T05:24:03.854Z,19.91
2018-06-08T05:26:32.038Z,19.93
2018-06-08T05:29:00.224Z,20.12
2018-06-08T05:31:28.375Z,20.28
2018-06-08T05:33:56.571Z,20.42
2018-06-08T05:36:24.809Z,20.66
2018-06-08T05:38:52.975Z,20.88
2018-06-08T05:41:21.127Z,20.92
2018-06-08T05:43:49.316Z,20.82
2018-06-08T05:46:17.498Z,20.90
2018-06-08T05:48:45.627Z,21.03
2018-06-08T05:51:13.807Z,21.17
2018-06-08T05:53:42.043Z,21.23
2018-06-08T05:56:10.159Z,21.28
2018-06-08T05:58:38.342Z,21.35
2018-06-08T06:01:06.634Z,21.44
2018-06-08T06:03:36.637Z,21.47
2018-06-08T06:06:14.789Z,21.18
2018-06-08T06:08:55.390Z,21.37
2018-06-08T06:11:32.333Z,21.51
2018-06-08T06:14:11.491Z,21.53
2018-06-08T06:16:45.588Z,21.62
2018-06-08T06:19:15.089Z,21.67
2018-06-08T06:21:46.831Z,21.96
2018-06-08T06:24:15.420Z,21.96
2018-06-08T06:26:44.108Z,22.09
2018-06-08T06:29:15.139Z,22.16
2018-06-08T06:31:52.628Z,22.24
2018-06-08T06:34:34.891Z,22.40
2018-06-08T06:40:02.166Z,22.42
2018-06-08T06:42:40.539Z,22.52
2018-06-08T06:47:57.895Z,22.84
2018-06-08T06:50:27.401Z,22.68
2018-06-08T06:52:57.123Z,22.20
2018-06-08T06:55:26.278Z,22.30
2018-06-08T06:57:58.811Z,22.16
2018-06-08T07:00:32.763Z,22.36
2018-06-08T07:03:19.724Z,22.79
2018-06-08T07:05:56.804Z,22.69
2018-06-08T07:08:29.866Z,22.83
2018-06-08T07:11:01.991Z,22.41
2018-06-08T07:13:47.681Z,22.45
2018-06-08T07:16:25.962Z,22.46
2018-06-08T07:19:08.965Z,22.47
2018-06-08T07:21:45.191Z,22.57
2018-06-08T07:24:37.105Z,22.79
2018-06-08T07:27:12.601Z,22.81
2018-06-08T07:29:45.948Z,23.09
2018-06-08T07:32:14.297Z,23.05
2018-06-08T07:34:42.447Z,23.44
2018-06-08T07:37:10.679Z,23.92
2018-06-08T07:39:38.826Z,23.76
2018-06-08T07:42:06.991Z,23.73
2018-06-08T07:44:35.144Z,23.74
2018-06-08T07:47:03.301Z,24.18
2018-06-08T07:49:31.484Z,24.36
2018-06-08T07:51:59.680Z,24.34
2018-06-08T07:54:27.856Z,24.29
2018-06-08T07:56:56.124Z,24.34
2018-06-08T07:59:24.260Z,24.44
2018-06-08T08:01:53.012Z,24.50
2018-06-08T08:04:21.284Z,24.38
2018-06-08T08:06:49.428Z,24.30
2018-06-08T08:09:17.640Z,24.53
2018-06-08T08:11:45.754Z,24.70
2018-06-08T08:14:13.983Z,24.82
2018-06-08T08:16:42.146Z,25.09
2018-06-08T08:19:10.304Z,25.20
2018-06-08T08:21:38.467Z,25.13
2018-06-08T08:24:06.708Z,25.01
2018-06-08T08:26:42.671Z,24.80
2018-06-08T08:29:10.812Z,24.92
2018-06-08T08:31:39.017Z,24.74
2018-06-08T08:34:07.180Z,24.79
2018-06-08T08:36:35.366Z,24.99
2018-06-08T08:39:03.829Z,24.59
2018-06-08T08:41:32.042Z,24.34
2018-06-08T08:44:00.216Z,24.65
2018-06-08T08:46:28.416Z,25.06
2018-06-08T08:48:56.592Z,25.07
2018-06-08T08:51:24.773Z,24.60
2018-06-08T08:53:52.968Z,24.42
2018-06-08T08:56:21.235Z,24.98
2018-06-08T08:58:49.382Z,25.25
2018-06-08T09:01:17.561Z,25.23
2018-06-08T09:03:45.741Z,25.30
2018-06-08T09:06:13.923Z,25.52
2018-06-08T09:08:42.772Z,25.29
2018-06-08T09:11:10.916Z,25.17
2018-06-08T09:13:39.070Z,25.56
2018-06-08T09:16:07.250Z,25.48
2018-06-08T09:18:35.394Z,25.66
2018-06-08T09:21:03.543Z,25.75
2018-06-08T09:23:31.739Z,25.80
2018-06-08T09:25:59.895Z,25.54
2018-06-08T09:28:28.045Z,25.71
2018-06-08T09:30:56.212Z,25.95
2018-06-08T09:33:24.370Z,26.06
2018-06-08T09:35:52.533Z,25.95
2018-06-08T09:38:20.711Z,26.02
2018-06-08T09:40:48.882Z,26.18
2018-06-08T09:43:17.027Z,26.23
2018-06-08T09:45:45.171Z,26.22
2018-06-08T09:48:13.343Z,26.29
2018-06-08T09:50:41.524Z,26.33
2018-06-08T09:53:09.663Z,26.58
2018-06-08T09:55:37.798Z,26.55
2018-06-08T09:58:06.668Z,26.40
2018-06-08T10:00:40.326Z,26.69
2018-06-08T10:03:08.578Z,26.63
2018-06-08T10:05:36.819Z,26.84
2018-06-08T10:08:05.270Z,26.94
2018-06-08T10:10:33.427Z,27.03
2018-06-08T10:13:01.615Z,27.07
2018-06-08T10:15:29.865Z,27.08
2018-06-08T10:17:58.038Z,27.13
2018-06-08T10:20:26.235Z,27.21
2018-06-08T10:22:54.394Z,27.08
2018-06-08T10:25:22.547Z,27.04
2018-06-08T10:27:50.733Z,27.08
2018-06-08T10:30:18.900Z,27.10
2018-06-08T10:32:47.134Z,27.18
2018-06-08T10:35:15.355Z,27.29
2018-06-08T10:37:43.554Z,27.28
2018-06-08T10:40:11.723Z,27.31
2018-06-08T10:42:39.859Z,27.60
2018-06-08T10:45:08.008Z,27.63
2018-06-08T10:47:38.301Z,27.57
2018-06-08T10:50:06.475Z,27.57
2018-06-08T10:52:34.635Z,27.47
2018-06-08T10:55:02.833Z,27.39
2018-06-08T10:57:31.306Z,27.48
2018-06-08T10:59:59.511Z,27.27
2018-06-08T11:02:27.701Z,27.27
2018-06-08T11:04:55.895Z,27.26
2018-06-08T11:07:24.042Z,27.60
2018-06-08T11:09:53.105Z,27.52
2018-06-08T11:12:21.324Z,27.51
2018-06-08T11:14:49.473Z,27.40
2018-06-08T11:17:17.679Z,27.60
2018-06-08T11:19:45.920Z,27.78
2018-06-08T11:22:14.108Z,27.63
2018-06-08T11:24:42.307Z,27.74
2018-06-08T11:27:10.444Z,27.83
2018-06-08T11:29:38.742Z,27.94
2018-06-08T11:32:06.883Z,28.00
2018-06-08T11:34:35.084Z,28.10
2018-06-08T11:37:03.258Z,27.90
2018-06-08T11:39:31.423Z,27.84
2018-06-08T11:41:59.595Z,27.79
2018-06-08T11:44:27.773Z,27.91
2018-06-08T11:46:56.033Z,28.34
2018-06-08T11:49:24.239Z,28.54
2018-06-08T11:51:52.418Z,28.09
2018-06-08T11:54:20.564Z,28.37
2018-06-08T11:56:48.716Z,28.53
2018-06-08T11:59:16.881Z,28.77
2018-06-08T12:01:45.096Z,28.80
2018-06-08T12:04:13.279Z,28.57
2018-06-08T12:06:41.416Z,28.25
2018-06-08T12:09:09.601Z,28.21
2018-06-08T12:11:37.757Z,28.31
2018-06-08T12:14:05.956Z,28.24
2018-06-08T12:16:34.134Z,28.19
2018-06-08T12:19:02.380Z,28.36
2018-06-08T12:21:30.540Z,28.10
2018-06-08T12:23:58.742Z,28.08
2018-06-08T12:26:26.857Z,28.15
2018-06-08T12:28:55.044Z,28.32
2018-06-08T12:31:23.300Z,28.37
2018-06-08T12:33:51.483Z,28.32
2018-06-08T12:36:19.712Z,28.08
2018-06-08T12:38:47.977Z,28.30
2018-06-08T12:41:16.225Z,28.49
2018-06-08T12:43:44.517Z,28.41
2018-06-08T12:46:12.751Z,28.59
2018-06-08T12:48:40.911Z,28.75
2018-06-08T12:51:09.058Z,28.81
2018-06-08T12:53:37.214Z,28.92
2018-06-08T12:56:05.409Z,28.72
2018-06-08T12:58:33.582Z,28.89
2018-06-08T13:01:01.775Z,28.99
2018-06-08T13:03:29.932Z,28.96
2018-06-08T13:05:58.115Z,28.95
2018-06-08T13:08:26.271Z,29.14
2018-06-08T13:10:54.448Z,29.12
2018-06-08T13:13:22.571Z,29.07
2018-06-08T13:15:50.733Z,29.08
2018-06-08T13:18:18.923Z,29.30
2018-06-08T13:20:47.066Z,29.52
2018-06-08T13:23:15.215Z,29.44
2018-06-08T13:25:43.383Z,29.38
2018-06-08T13:28:11.514Z,29.32
2018-06-08T13:30:39.677Z,29.46
2018-06-08T13:33:07.847Z,29.60
2018-06-08T13:35:36.018Z,29.55
2018-06-08T13:38:04.180Z,29.38
2018-06-08T13:40:32.744Z,29.34
2018-06-08T13:43:01.706Z,29.28
2018-06-08T13:45:30.021Z,29.26
2018-06-08T13:47:58.542Z,29.26
2018-06-08T13:50:27.014Z,29.24
2018-06-08T13:52:55.372Z,29.17
2018-06-08T13:55:23.818Z,28.99
2018-06-08T13:57:52.962Z,29.16
2018-06-08T14:00:22.223Z,29.26
2018-06-08T14:02:50.502Z,29.36
2018-06-08T14:05:19.005Z,29.29
2018-06-08T14:07:47.301Z,29.27
2018-06-08T14:10:15.681Z,29.29
2018-06-08T14:12:43.960Z,29.22
2018-06-08T14:15:12.951Z,29.47
2018-06-08T14:17:41.409Z,29.50
2018-06-08T14:20:09.667Z,29.42
2018-06-08T14:22:38.230Z,29.52
2018-06-08T14:25:09.668Z,29.50
2018-06-08T14:27:38.646Z,29.64
2018-06-08T14:30:09.716Z,29.70
2018-06-08T14:32:37.985Z,29.77
2018-06-08T14:35:06.472Z,29.86
2018-06-08T14:37:35.004Z,29.79
2018-06-08T14:40:03.422Z,29.72
2018-06-08T14:42:31.741Z,29.92
2018-06-08T14:45:00.057Z,29.85
2018-06-08T14:47:28.491Z,29.90
2018-06-08T14:49:57.381Z,29.75
2018-06-08T14:52:25.738Z,29.99
2018-06-08T14:54:54.118Z,29.98
2018-06-08T14:57:22.441Z,30.13
2018-06-08T14:59:50.914Z,30.28
2018-06-08T15:02:19.120Z,30.32
2018-06-08T15:04:47.523Z,30.31
2018-06-08T15:07:16.550Z,30.20
2018-06-08T15:09:44.936Z,30.09
2018-06-08T15:12:13.135Z,29.90
2018-06-08T15:14:41.275Z,29.99
2018-06-08T15:17:09.504Z,29.83
2018-06-08T15:19:37.654Z,29.88
2018-06-08T15:22:05.831Z,29.80
2018-06-08T15:24:34.026Z,29.86
2018-06-08T15:27:02.183Z,29.53
2018-06-08T15:29:30.411Z,29.37
2018-06-08T15:31:58.555Z,29.49
2018-06-08T15:34:26.733Z,29.54
2018-06-08T15:36:54.886Z,29.52
2018-06-08T15:39:23.051Z,29.64
2018-06-08T15:41:51.208Z,29.55
2018-06-08T15:44:19.370Z,29.50
2018-06-08T15:46:47.555Z,29.61
2018-06-08T15:49:15.683Z,29.54
2018-06-08T15:51:43.823Z,29.53
2018-06-08T15:54:11.961Z,29.53
2018-06-08T15:56:40.100Z,29.69
2018-06-08T15:59:08.240Z,29.63
2018-06-08T16:01:36.384Z,29.66
2018-06-08T16:04:04.696Z,29.80
2018-06-08T16:06:33.451Z,30.10
2018-06-08T16:09:01.599Z,30.03
2018-06-08T16:11:29.748Z,29.97
2018-06-08T16:13:57.890Z,30.05
2018-06-08T16:16:26.090Z,30.10
2018-06-08T16:18:54.329Z,30.17
2018-06-08T16:21:22.503Z,30.25
2018-06-08T16:23:50.650Z,30.28
2018-06-08T16:26:18.861Z,30.42
2018-06-08T16:28:47.072Z,30.38
2018-06-08T16:31:15.255Z,30.31
2018-06-08T16:33:43.399Z,30.33
2018-06-08T16:36:11.658Z,30.39
2018-06-08T16:38:39.756Z,30.29
2018-06-08T16:41:07.910Z,30.27
2018-06-08T16:43:36.082Z,30.36
2018-06-08T16:46:04.251Z,30.34
2018-06-08T16:48:32.408Z,30.27
2018-06-08T16:51:00.550Z,30.13
2018-06-08T16:53:28.897Z,30.26
2018-06-08T16:55:57.029Z,30.36
2018-06-08T16:58:25.195Z,30.72
2018-06-08T17:00:53.340Z,30.92
2018-06-08T17:03:21.529Z,31.11
2018-06-08T17:05:49.683Z,31.39
2018-06-08T17:08:17.862Z,31.72
2018-06-08T17:10:45.995Z,31.81
2018-06-08T17:13:14.164Z,31.68
2018-06-08T17:15:42.345Z,31.47
2018-06-08T17:18:10.562Z,31.54
2018-06-08T17:20:38.695Z,31.55
2018-06-08T17:23:06.961Z,31.11
2018-06-08T17:25:35.119Z,30.32
2018-06-08T17:28:03.294Z,29.60
2018-06-08T17:30:31.464Z,29.02
2018-06-08T17:32:59.631Z,28.68
2018-06-08T17:35:27.770Z,28.43
2018-06-08T17:37:56.106Z,28.21
2018-06-08T17:40:24.316Z,28.08
2018-06-08T17:42:52.480Z,27.82
2018-06-08T17:45:20.674Z,27.64
2018-06-08T17:47:48.815Z,27.40
2018-06-08T17:50:17.033Z,27.52
2018-06-08T17:52:45.339Z,27.54
2018-06-08T17:55:13.519Z,27.50
2018-06-08T17:57:42.340Z,27.35
2018-06-08T18:00:11.839Z,27.25
2018-06-08T18:02:40.103Z,27.20
2018-06-08T18:05:08.386Z,27.25
2018-06-08T18:07:36.546Z,27.14
2018-06-08T18:10:05.120Z,26.99
2018-06-08T18:12:33.370Z,27.00
2018-06-08T18:15:01.610Z,27.01
2018-06-08T18:17:29.790Z,27.01
2018-06-08T18:19:58.050Z,26.90
2018-06-08T18:22:26.288Z,26.78
2018-06-08T18:24:54.521Z,26.68
2018-06-08T18:27:23.009Z,26.64
2018-06-08T18:29:51.253Z,26.61
2018-06-08T18:32:19.528Z,26.51
2018-06-08T18:34:48.746Z,26.47
2018-06-08T18:37:16.969Z,26.33
2018-06-08T18:39:45.329Z,26.25
2018-06-08T18:42:13.566Z,26.20
2018-06-08T18:44:43.476Z,26.04
2018-06-08T18:47:11.663Z,25.91
2018-06-08T18:49:39.846Z,25.90
2018-06-08T18:52:08.029Z,25.76
2018-06-08T18:54:36.231Z,25.78
2018-06-08T18:57:04.487Z,25.71
2018-06-08T18:59:32.659Z,25.55
2018-06-08T19:02:00.867Z,25.51
2018-06-08T19:04:29.880Z,25.42
2018-06-08T19:06:58.122Z,25.33
2018-06-08T19:09:26.381Z,25.24
2018-06-08T19:11:54.580Z,25.28
2018-06-08T19:14:23.003Z,25.16
2018-06-08T19:16:51.303Z,25.08
2018-06-08T19:19:19.665Z,25.01
2018-06-08T19:21:47.869Z,24.86
2018-06-08T19:24:16.074Z,24.94
2018-06-08T19:26:44.270Z,24.91
2018-06-08T19:29:12.469Z,24.87
2018-06-08T19:31:40.782Z,24.92
2018-06-08T19:34:09.177Z,24.87
2018-06-08T19:36:37.471Z,24.73
2018-06-08T19:39:08.703Z,24.74
2018-06-08T19:41:37.016Z,24.69
2018-06-08T19:44:05.210Z,24.73
2018-06-08T19:46:33.484Z,24.69
2018-06-08T19:49:01.730Z,24.62
2018-06-08T19:51:29.959Z,24.64
2018-06-08T19:53:58.272Z,24.65
2018-06-08T19:56:26.517Z,24.61
2018-06-08T19:58:54.774Z,24.57
2018-06-08T20:01:22.967Z,24.66
2018-06-08T20:03:51.159Z,24.62
2018-06-08T20:06:19.428Z,24.48
2018-06-08T20:08:47.669Z,24.30
2018-06-08T20:11:16.781Z,24.35
2018-06-08T20:13:45.056Z,24.21
2018-06-08T20:16:13.246Z,24.20
2018-06-08T20:18:41.468Z,24.17
2018-06-08T20:21:18.062Z,24.07
2018-06-08T20:23:46.381Z,24.10
2018-06-08T20:26:14.593Z,24.10
2018-06-08T20:28:42.808Z,24.10
2018-06-08T20:31:11.077Z,24.06
2018-06-08T20:33:39.293Z,24.03
2018-06-08T20:36:07.580Z,23.89
2018-06-08T20:38:35.785Z,23.92
2018-06-08T20:41:04.079Z,23.90
2018-06-08T20:43:32.383Z,23.73
2018-06-08T20:46:00.616Z,23.74
2018-06-08T20:48:28.778Z,23.64
2018-06-08T20:50:57.018Z,23.66
2018-06-08T20:53:26.035Z,23.69
2018-06-08T20:55:54.387Z,23.47
2018-06-08T20:58:26.795Z,23.55
2018-06-08T21:00:55.004Z,23.48
2018-06-08T21:03:23.184Z,23.54
2018-06-08T21:05:51.404Z,23.53
2018-06-08T21:08:19.609Z,23.50
2018-06-08T21:10:47.835Z,23.45
2018-06-08T21:13:16.013Z,23.43
2018-06-08T21:15:44.223Z,23.42
2018-06-08T21:18:12.457Z,23.45
2018-06-08T21:20:40.711Z,23.49
2018-06-08T21:23:09.716Z,23.46
2018-06-08T21:25:38.290Z,23.32
2018-06-08T21:28:07.406Z,23.27
2018-06-08T21:30:35.778Z,23.40
2018-06-08T21:33:04.123Z,23.39
2018-06-08T21:35:32.869Z,23.39
2018-06-08T21:38:01.115Z,23.32
2018-06-08T21:40:29.358Z,23.41
2018-06-08T21:42:57.654Z,23.28
2018-06-08T21:45:25.867Z,23.38
2018-06-08T21:47:54.043Z,23.27
2018-06-08T21:50:22.272Z,23.21
2018-06-08T21:52:50.897Z,23.25
2018-06-08T21:55:19.192Z,23.39
2018-06-08T21:57:47.395Z,23.23
2018-06-08T22:00:15.657Z,23.09
2018-06-08T22:02:43.826Z,23.07
2018-06-08T22:07:46.612Z,22.87
2018-06-08T22:10:14.994Z,22.82
2018-06-08T22:12:43.934Z,22.84
2018-06-08T22:15:12.481Z,22.81
2018-06-08T22:17:40.685Z,22.79
2018-06-08T22:20:08.896Z,22.79
2018-06-08T22:22:37.099Z,22.81
2018-06-08T22:25:06.138Z,22.58
2018-06-08T22:27:34.672Z,22.30
2018-06-08T22:30:02.928Z,22.07
2018-06-08T22:32:31.209Z,21.93
2018-06-08T22:34:59.415Z,22.04
2018-06-08T22:37:27.640Z,21.96
2018-06-08T22:39:55.844Z,21.96
2018-06-08T22:42:25.017Z,21.96
2018-06-08T22:44:53.287Z,21.90
2018-06-08T22:47:22.193Z,22.00
2018-06-08T22:49:50.546Z,21.84
2018-06-08T22:52:18.807Z,21.93
2018-06-08T22:54:47.023Z,21.88
2018-06-08T22:57:15.204Z,21.71
2018-06-08T22:59:43.677Z,21.53
2018-06-08T23:02:12.861Z,21.21
2018-06-08T23:04:41.209Z,21.11
2018-06-08T23:07:09.996Z,21.13
2018-06-08T23:09:38.188Z,21.16
2018-06-08T23:12:06.575Z,21.13
2018-06-08T23:14:34.791Z,21.27
2018-06-08T23:17:03.373Z,21.38
2018-06-08T23:19:31.497Z,21.18
2018-06-08T23:21:59.791Z,21.06
2018-06-08T23:24:28.205Z,20.83
2018-06-08T23:26:56.554Z,20.68
2018-06-08T23:29:24.775Z,20.64
2018-06-08T23:31:52.997Z,20.49
2018-06-08T23:34:21.258Z,20.32
2018-06-08T23:36:49.811Z,20.18
2018-06-08T23:39:18.066Z,20.13
2018-06-08T23:41:46.356Z,20.08
2018-06-08T23:44:14.551Z,20.02
2018-06-08T23:46:43.132Z,20.17
2018-06-08T23:49:11.779Z,20.00
2018-06-08T23:51:39.984Z,20.10
2018-06-08T23:54:08.203Z,20.07
2018-06-08T23:56:36.458Z,20.00
2018-06-08T23:59:04.726Z,20.12
